sensor_id;sensor_type;location;lat;lon;timestamp;temperature;humidity
7564;DHT22;3823;53.586;10.040;2023-05-16T04:02:45;12.70;1.00
7564;DHT22;3823;53.586;10.040;2023-05-16T04:05:11;12.60;1.00
7564;DHT22;3823;53.586;10.040;2023-05-16T04:07:38;12.60;1.00
7564;DHT22;3823;53.586;10.040;2023-05-16T04:10:04;12.70;1.00
7564;DHT22;3823;53.586;10.040;2023-05-16T04:14:58;12.60;1.00
7564;DHT22;3823;53.586;10.040;2023-05-16T04:17:25;12.60;1.00
7564;DHT22;3823;53.586;10.040;2023-05-16T04:19:50;12.50;1.00
7564;DHT22;3823;53.586;10.040;2023-05-16T04:22:16;12.60;1.00
7564;DHT22;3823;53.586;10.040;2023-05-16T04:24:41;12.60;1.00
7564;DHT22;3823;53.586;10.040;2023-05-16T04:27:07;12.50;1.00
7564;DHT22;3823;53.586;10.040;2023-05-16T04:29:34;12.50;1.00
7564;DHT22;3823;53.586;10.040;2023-05-16T04:31:59;12.50;1.00
7564;DHT22;3823;53.586;10.040;2023-05-16T04:34:25;12.60;1.00
7564;DHT22;3823;53.586;10.040;2023-05-16T04:36:52;12.50;1.00
7564;DHT22;3823;53.586;10.040;2023-05-16T04:39:18;12.60;1.00
7564;DHT22;3823;53.586;10.040;2023-05-16T04:41:43;12.50;1.00
7564;DHT22;3823;53.586;10.040;2023-05-16T04:44:09;12.50;1.00
7564;DHT22;3823;53.586;10.040;2023-05-16T04:46:35;12.60;1.00
7564;DHT22;3823;53.586;10.040;2023-05-16T04:49:01;12.60;1.00
7564;DHT22;3823;53.586;10.040;2023-05-16T04:51:27;12.60;1.00
7564;DHT22;3823;53.586;10.040;2023-05-16T04:53:53;12.70;1.00
7564;DHT22;3823;53.586;10.040;2023-05-16T04:56:19;12.60;1.00
7564;DHT22;3823;53.586;10.040;2023-05-16T04:58:45;12.60;1.00
7564;DHT22;3823;53.586;10.040;2023-05-16T05:01:11;12.50;1.00
7564;DHT22;3823;53.586;10.040;2023-05-16T05:03:36;12.40;1.00
7564;DHT22;3823;53.586;10.040;2023-05-16T05:06:02;12.50;1.00
7564;DHT22;3823;53.586;10.040;2023-05-16T05:08:28;12.50;1.00
7564;DHT22;3823;53.586;10.040;2023-05-16T05:10:55;12.50;1.00
7564;DHT22;3823;53.586;10.040;2023-05-16T05:13:20;12.50;1.00
7564;DHT22;3823;53.586;10.040;2023-05-16T05:15:46;12.50;1.00
7564;DHT22;3823;53.586;10.040;2023-05-16T05:18:12;12.50;1.00
7564;DHT22;3823;53.586;10.040;2023-05-16T05:20:37;12.60;1.00
7564;DHT22;3823;53.586;10.040;2023-05-16T05:23:03;12.70;1.00
7564;DHT22;3823;53.586;10.040;2023-05-16T05:25:28;12.70;1.00
7564;DHT22;3823;53.586;10.040;2023-05-16T05:27:54;12.80;1.00
7564;DHT22;3823;53.586;10.040;2023-05-16T05:30:19;12.70;1.00
7564;DHT22;3823;53.586;10.040;2023-05-16T05:32:45;12.70;1.00
7564;DHT22;3823;53.586;10.040;2023-05-16T05:35:11;12.90;1.00
7564;DHT22;3823;53.586;10.040;2023-05-16T05:37:36;12.90;1.00
7564;DHT22;3823;53.586;10.040;2023-05-16T05:40:02;12.90;1.00
7564;DHT22;3823;53.586;10.040;2023-05-16T05:42:28;13.00;1.00
7564;DHT22;3823;53.586;10.040;2023-05-16T05:44:54;13.00;1.00
7564;DHT22;3823;53.586;10.040;2023-05-16T05:47:19;12.90;1.00
7564;DHT22;3823;53.586;10.040;2023-05-16T05:49:46;12.90;1.00
7564;DHT22;3823;53.586;10.040;2023-05-16T05:52:12;12.90;1.00
7564;DHT22;3823;53.586;10.040;2023-05-16T05:54:37;12.90;1.00
7564;DHT22;3823;53.586;10.040;2023-05-16T05:57:03;12.90;1.00
7564;DHT22;3823;53.586;10.040;2023-05-16T05:59:28;13.10;1.00
7564;DHT22;3823;53.586;10.040;2023-05-16T06:01:54;13.10;1.00
7564;DHT22;3823;53.586;10.040;2023-05-16T06:04:20;13.20;1.00
7564;DHT22;3823;53.586;10.040;2023-05-16T06:06:46;13.30;1.00
7564;DHT22;3823;53.586;10.040;2023-05-16T06:09:12;13.30;1.00
7564;DHT22;3823;53.586;10.040;2023-05-16T06:11:41;13.40;1.00
7564;DHT22;3823;53.586;10.040;2023-05-16T06:14:07;13.50;1.00
7564;DHT22;3823;53.586;10.040;2023-05-16T06:16:33;13.60;1.00
7564;DHT22;3823;53.586;10.040;2023-05-16T06:18:59;13.50;1.00
7564;DHT22;3823;53.586;10.040;2023-05-16T06:21:25;13.40;1.00
7564;DHT22;3823;53.586;10.040;2023-05-16T06:23:50;13.30;1.00
7564;DHT22;3823;53.586;10.040;2023-05-16T06:26:16;13.40;1.00
7564;DHT22;3823;53.586;10.040;2023-05-16T06:28:41;13.40;1.00
7564;DHT22;3823;53.586;10.040;2023-05-16T06:31:07;13.50;1.00
7564;DHT22;3823;53.586;10.040;2023-05-16T06:33:32;13.70;1.00
7564;DHT22;3823;53.586;10.040;2023-05-16T06:35:58;13.90;1.00
7564;DHT22;3823;53.586;10.040;2023-05-16T06:38:24;14.00;1.00
7564;DHT22;3823;53.586;10.040;2023-05-16T06:40:49;13.90;1.00
7564;DHT22;3823;53.586;10.040;2023-05-16T06:43:15;13.90;1.00
7564;DHT22;3823;53.586;10.040;2023-05-16T06:45:40;13.90;1.00
7564;DHT22;3823;53.586;10.040;2023-05-16T06:48:07;13.70;1.00
7564;DHT22;3823;53.586;10.040;2023-05-16T06:50:33;13.60;1.00
7564;DHT22;3823;53.586;10.040;2023-05-16T06:53:00;13.50;1.00
7564;DHT22;3823;53.586;10.040;2023-05-16T06:55:25;13.30;1.00
7564;DHT22;3823;53.586;10.040;2023-05-16T06:57:51;13.30;1.00
7564;DHT22;3823;53.586;10.040;2023-05-16T07:00:17;13.30;1.00
7564;DHT22;3823;53.586;10.040;2023-05-16T07:02:43;13.20;1.00
7564;DHT22;3823;53.586;10.040;2023-05-16T07:05:08;13.30;1.00
7564;DHT22;3823;53.586;10.040;2023-05-16T07:07:34;13.50;1.00
7564;DHT22;3823;53.586;10.040;2023-05-16T07:10:00;13.60;1.00
7564;DHT22;3823;53.586;10.040;2023-05-16T07:12:26;13.70;1.00
7564;DHT22;3823;53.586;10.040;2023-05-16T07:14:51;13.50;1.00
7564;DHT22;3823;53.586;10.040;2023-05-16T07:17:17;13.50;1.00
7564;DHT22;3823;53.586;10.040;2023-05-16T07:19:42;13.50;1.00
7564;DHT22;3823;53.586;10.040;2023-05-16T07:22:08;13.50;1.00
7564;DHT22;3823;53.586;10.040;2023-05-16T07:24:33;13.60;1.00
7564;DHT22;3823;53.586;10.040;2023-05-16T07:27:00;13.60;1.00
7564;DHT22;3823;53.586;10.040;2023-05-16T07:29:26;13.70;1.00
7564;DHT22;3823;53.586;10.040;2023-05-16T07:31:51;13.80;1.00
7564;DHT22;3823;53.586;10.040;2023-05-16T07:34:17;14.10;1.00
7564;DHT22;3823;53.586;10.040;2023-05-16T07:36:42;14.40;1.00
7564;DHT22;3823;53.586;10.040;2023-05-16T07:39:08;14.70;1.00
7564;DHT22;3823;53.586;10.040;2023-05-16T07:41:33;14.90;1.00
7564;DHT22;3823;53.586;10.040;2023-05-16T07:43:59;15.20;1.00
7564;DHT22;3823;53.586;10.040;2023-05-16T07:46:25;15.30;1.00
7564;DHT22;3823;53.586;10.040;2023-05-16T07:48:50;15.50;1.00
7564;DHT22;3823;53.586;10.040;2023-05-16T07:51:16;15.50;1.00
7564;DHT22;3823;53.586;10.040;2023-05-16T07:53:42;15.40;1.00
7564;DHT22;3823;53.586;10.040;2023-05-16T07:56:07;15.20;1.00
7564;DHT22;3823;53.586;10.040;2023-05-16T07:58:33;15.20;1.00
7564;DHT22;3823;53.586;10.040;2023-05-16T08:00:58;15.10;1.00
7564;DHT22;3823;53.586;10.040;2023-05-16T08:03:24;15.10;1.00
7564;DHT22;3823;53.586;10.040;2023-05-16T08:05:50;15.30;1.00
7564;DHT22;3823;53.586;10.040;2023-05-16T08:08:16;15.50;1.00
7564;DHT22;3823;53.586;10.040;2023-05-16T08:10:42;15.50;1.00
7564;DHT22;3823;53.586;10.040;2023-05-16T08:13:07;15.50;1.00
7564;DHT22;3823;53.586;10.040;2023-05-16T08:15:34;15.70;1.00
7564;DHT22;3823;53.586;10.040;2023-05-16T08:17:59;16.00;1.00
7564;DHT22;3823;53.586;10.040;2023-05-16T08:20:25;15.90;1.00
7564;DHT22;3823;53.586;10.040;2023-05-16T08:22:51;15.90;1.00
7564;DHT22;3823;53.586;10.040;2023-05-16T08:25:17;16.20;1.00
7564;DHT22;3823;53.586;10.040;2023-05-16T08:27:44;16.40;1.00
7564;DHT22;3823;53.586;10.040;2023-05-16T08:30:10;16.40;1.00
7564;DHT22;3823;53.586;10.040;2023-05-16T08:32:36;16.20;1.00
7564;DHT22;3823;53.586;10.040;2023-05-16T08:35:02;15.80;1.00
7564;DHT22;3823;53.586;10.040;2023-05-16T08:37:28;15.50;1.00
7564;DHT22;3823;53.586;10.040;2023-05-16T08:39:53;15.20;1.00
7564;DHT22;3823;53.586;10.040;2023-05-16T08:42:19;15.30;1.00
7564;DHT22;3823;53.586;10.040;2023-05-16T08:44:44;15.40;1.00
7564;DHT22;3823;53.586;10.040;2023-05-16T08:47:12;15.70;1.00
7564;DHT22;3823;53.586;10.040;2023-05-16T08:49:41;15.90;1.00
7564;DHT22;3823;53.586;10.040;2023-05-16T08:52:09;16.20;1.00
7564;DHT22;3823;53.586;10.040;2023-05-16T08:54:35;16.20;1.00
7564;DHT22;3823;53.586;10.040;2023-05-16T08:57:02;16.50;1.00
7564;DHT22;3823;53.586;10.040;2023-05-16T08:59:28;16.60;1.00
7564;DHT22;3823;53.586;10.040;2023-05-16T09:01:56;16.80;1.00
7564;DHT22;3823;53.586;10.040;2023-05-16T09:04:22;16.90;1.00
7564;DHT22;3823;53.586;10.040;2023-05-16T09:06:49;17.00;1.00
7564;DHT22;3823;53.586;10.040;2023-05-16T09:09:16;17.20;1.00
7564;DHT22;3823;53.586;10.040;2023-05-16T09:11:41;17.40;1.00
7564;DHT22;3823;53.586;10.040;2023-05-16T09:14:07;17.60;1.00
7564;DHT22;3823;53.586;10.040;2023-05-16T09:16:32;17.70;1.00
7564;DHT22;3823;53.586;10.040;2023-05-16T09:18:59;17.70;1.00
7564;DHT22;3823;53.586;10.040;2023-05-16T09:21:33;17.70;1.00
7564;DHT22;3823;53.586;10.040;2023-05-16T09:24:08;17.40;1.00
7564;DHT22;3823;53.586;10.040;2023-05-16T09:26:36;17.50;1.00
7564;DHT22;3823;53.586;10.040;2023-05-16T09:29:09;17.70;1.00
7564;DHT22;3823;53.586;10.040;2023-05-16T09:31:35;17.90;1.00
7564;DHT22;3823;53.586;10.040;2023-05-16T09:34:06;18.00;1.00
7564;DHT22;3823;53.586;10.040;2023-05-16T09:36:32;18.00;1.00
7564;DHT22;3823;53.586;10.040;2023-05-16T09:38:57;17.70;1.00
7564;DHT22;3823;53.586;10.040;2023-05-16T09:41:23;17.10;1.00
7564;DHT22;3823;53.586;10.040;2023-05-16T09:43:49;17.00;1.00
7564;DHT22;3823;53.586;10.040;2023-05-16T09:46:15;17.20;1.00
7564;DHT22;3823;53.586;10.040;2023-05-16T09:48:47;17.50;1.00
7564;DHT22;3823;53.586;10.040;2023-05-16T09:51:13;17.70;1.00
7564;DHT22;3823;53.586;10.040;2023-05-16T09:53:40;17.80;1.00
7564;DHT22;3823;53.586;10.040;2023-05-16T09:56:13;18.00;1.00
7564;DHT22;3823;53.586;10.040;2023-05-16T09:58:40;18.30;1.00
7564;DHT22;3823;53.586;10.040;2023-05-16T10:01:07;18.40;1.00
7564;DHT22;3823;53.586;10.040;2023-05-16T10:03:40;18.20;1.00
7564;DHT22;3823;53.586;10.040;2023-05-16T10:06:07;17.80;1.00
7564;DHT22;3823;53.586;10.040;2023-05-16T10:08:33;17.30;1.00
7564;DHT22;3823;53.586;10.040;2023-05-16T10:11:02;17.10;1.00
7564;DHT22;3823;53.586;10.040;2023-05-16T10:13:28;16.80;1.00
7564;DHT22;3823;53.586;10.040;2023-05-16T10:15:56;16.60;1.00
7564;DHT22;3823;53.586;10.040;2023-05-16T10:18:22;16.30;1.00
7564;DHT22;3823;53.586;10.040;2023-05-16T10:20:51;16.30;1.00
7564;DHT22;3823;53.586;10.040;2023-05-16T10:23:19;16.60;1.00
7564;DHT22;3823;53.586;10.040;2023-05-16T10:25:47;16.80;1.00
7564;DHT22;3823;53.586;10.040;2023-05-16T10:28:15;16.80;1.00
7564;DHT22;3823;53.586;10.040;2023-05-16T10:30:42;16.50;1.00
7564;DHT22;3823;53.586;10.040;2023-05-16T10:33:12;16.60;1.00
7564;DHT22;3823;53.586;10.040;2023-05-16T10:35:39;16.60;1.00
7564;DHT22;3823;53.586;10.040;2023-05-16T10:38:06;16.60;1.00
7564;DHT22;3823;53.586;10.040;2023-05-16T10:40:33;17.00;1.00
7564;DHT22;3823;53.586;10.040;2023-05-16T10:43:00;17.20;1.00
7564;DHT22;3823;53.586;10.040;2023-05-16T10:45:27;17.20;1.00
7564;DHT22;3823;53.586;10.040;2023-05-16T10:47:56;17.00;1.00
7564;DHT22;3823;53.586;10.040;2023-05-16T10:50:41;16.70;1.00
7564;DHT22;3823;53.586;10.040;2023-05-16T10:55:43;16.90;1.00
7564;DHT22;3823;53.586;10.040;2023-05-16T10:58:09;16.90;1.00
7564;DHT22;3823;53.586;10.040;2023-05-16T11:00:34;16.70;1.00
7564;DHT22;3823;53.586;10.040;2023-05-16T11:03:04;16.40;1.00
7564;DHT22;3823;53.586;10.040;2023-05-16T11:05:30;16.30;1.00
7564;DHT22;3823;53.586;10.040;2023-05-16T11:08:04;16.10;1.00
7564;DHT22;3823;53.586;10.040;2023-05-16T11:10:30;16.10;1.00
7564;DHT22;3823;53.586;10.040;2023-05-16T11:13:02;16.10;1.00
7564;DHT22;3823;53.586;10.040;2023-05-16T11:15:30;16.10;1.00
7564;DHT22;3823;53.586;10.040;2023-05-16T11:18:07;16.10;1.00
7564;DHT22;3823;53.586;10.040;2023-05-16T11:20:37;16.30;1.00
7564;DHT22;3823;53.586;10.040;2023-05-16T11:23:23;16.70;1.00
7564;DHT22;3823;53.586;10.040;2023-05-16T11:25:57;16.80;1.00
7564;DHT22;3823;53.586;10.040;2023-05-16T11:28:25;16.80;1.00
7564;DHT22;3823;53.586;10.040;2023-05-16T11:30:56;16.80;1.00
7564;DHT22;3823;53.586;10.040;2023-05-16T11:33:23;17.00;1.00
7564;DHT22;3823;53.586;10.040;2023-05-16T11:36:05;17.00;1.00
7564;DHT22;3823;53.586;10.040;2023-05-16T11:38:31;17.30;1.00
7564;DHT22;3823;53.586;10.040;2023-05-16T11:41:04;17.50;1.00
7564;DHT22;3823;53.586;10.040;2023-05-16T11:43:41;17.60;1.00
7564;DHT22;3823;53.586;10.040;2023-05-16T11:46:11;17.60;1.00
7564;DHT22;3823;53.586;10.040;2023-05-16T11:48:37;17.40;1.00
7564;DHT22;3823;53.586;10.040;2023-05-16T11:51:03;17.40;1.00
7564;DHT22;3823;53.586;10.040;2023-05-16T11:53:29;17.40;1.00
7564;DHT22;3823;53.586;10.040;2023-05-16T11:55:55;17.30;1.00
7564;DHT22;3823;53.586;10.040;2023-05-16T11:58:21;17.20;1.00
7564;DHT22;3823;53.586;10.040;2023-05-16T12:00:50;17.00;1.00
7564;DHT22;3823;53.586;10.040;2023-05-16T12:03:18;16.90;1.00
7564;DHT22;3823;53.586;10.040;2023-05-16T12:05:54;16.70;1.00
7564;DHT22;3823;53.586;10.040;2023-05-16T12:08:21;16.50;1.00
7564;DHT22;3823;53.586;10.040;2023-05-16T12:10:48;16.30;1.00
7564;DHT22;3823;53.586;10.040;2023-05-16T12:13:15;16.50;1.00
7564;DHT22;3823;53.586;10.040;2023-05-16T12:15:41;16.70;1.00
7564;DHT22;3823;53.586;10.040;2023-05-16T12:18:08;16.90;1.00
7564;DHT22;3823;53.586;10.040;2023-05-16T12:20:34;17.00;1.00
7564;DHT22;3823;53.586;10.040;2023-05-16T12:23:00;16.90;1.00
7564;DHT22;3823;53.586;10.040;2023-05-16T12:25:29;16.70;1.00
7564;DHT22;3823;53.586;10.040;2023-05-16T12:28:01;16.60;1.00
7564;DHT22;3823;53.586;10.040;2023-05-16T12:30:29;16.70;1.00
7564;DHT22;3823;53.586;10.040;2023-05-16T12:35:21;17.00;1.00
7564;DHT22;3823;53.586;10.040;2023-05-16T12:37:48;17.00;1.00
7564;DHT22;3823;53.586;10.040;2023-05-16T12:40:14;17.00;1.00
7564;DHT22;3823;53.586;10.040;2023-05-16T12:42:42;17.00;1.00
7564;DHT22;3823;53.586;10.040;2023-05-16T12:45:18;17.00;1.00
7564;DHT22;3823;53.586;10.040;2023-05-16T12:47:44;17.00;1.00
7564;DHT22;3823;53.586;10.040;2023-05-16T12:50:14;16.80;1.00
7564;DHT22;3823;53.586;10.040;2023-05-16T12:52:48;16.90;1.00
7564;DHT22;3823;53.586;10.040;2023-05-16T12:55:15;16.90;1.00
7564;DHT22;3823;53.586;10.040;2023-05-16T12:57:44;16.90;1.00
7564;DHT22;3823;53.586;10.040;2023-05-16T13:00:12;16.70;1.00
7564;DHT22;3823;53.586;10.040;2023-05-16T13:02:39;16.60;1.00
7564;DHT22;3823;53.586;10.040;2023-05-16T13:05:05;16.60;1.00
7564;DHT22;3823;53.586;10.040;2023-05-16T13:07:35;16.40;1.00
7564;DHT22;3823;53.586;10.040;2023-05-16T13:10:01;16.30;1.00
7564;DHT22;3823;53.586;10.040;2023-05-16T13:12:27;16.30;1.00
7564;DHT22;3823;53.586;10.040;2023-05-16T13:14:52;16.30;1.00
7564;DHT22;3823;53.586;10.040;2023-05-16T13:17:18;15.90;1.00
7564;DHT22;3823;53.586;10.040;2023-05-16T13:19:44;15.70;1.00
7564;DHT22;3823;53.586;10.040;2023-05-16T13:22:09;15.70;1.00
7564;DHT22;3823;53.586;10.040;2023-05-16T13:24:35;15.80;1.00
7564;DHT22;3823;53.586;10.040;2023-05-16T13:27:01;15.90;1.00
7564;DHT22;3823;53.586;10.040;2023-05-16T13:29:27;16.10;1.00
7564;DHT22;3823;53.586;10.040;2023-05-16T13:31:53;16.00;1.00
7564;DHT22;3823;53.586;10.040;2023-05-16T13:34:19;16.00;1.00
7564;DHT22;3823;53.586;10.040;2023-05-16T13:36:44;16.00;1.00
7564;DHT22;3823;53.586;10.040;2023-05-16T13:39:12;16.00;1.00
7564;DHT22;3823;53.586;10.040;2023-05-16T13:41:37;16.10;1.00
7564;DHT22;3823;53.586;10.040;2023-05-16T13:44:05;16.20;1.00
7564;DHT22;3823;53.586;10.040;2023-05-16T13:46:30;16.40;1.00
7564;DHT22;3823;53.586;10.040;2023-05-16T13:48:56;16.30;1.00
7564;DHT22;3823;53.586;10.040;2023-05-16T13:51:22;16.20;1.00
7564;DHT22;3823;53.586;10.040;2023-05-16T13:53:47;16.20;1.00
7564;DHT22;3823;53.586;10.040;2023-05-16T13:56:13;16.10;1.00
7564;DHT22;3823;53.586;10.040;2023-05-16T13:58:38;16.10;1.00
7564;DHT22;3823;53.586;10.040;2023-05-16T14:01:04;16.10;1.00
7564;DHT22;3823;53.586;10.040;2023-05-16T14:03:30;16.00;1.00
7564;DHT22;3823;53.586;10.040;2023-05-16T14:05:56;15.90;1.00
7564;DHT22;3823;53.586;10.040;2023-05-16T14:08:22;15.70;1.00
7564;DHT22;3823;53.586;10.040;2023-05-16T14:10:47;15.50;1.00
7564;DHT22;3823;53.586;10.040;2023-05-16T14:13:13;15.50;1.00
7564;DHT22;3823;53.586;10.040;2023-05-16T14:15:38;15.60;1.00
7564;DHT22;3823;53.586;10.040;2023-05-16T14:18:04;15.50;1.00
7564;DHT22;3823;53.586;10.040;2023-05-16T14:20:30;15.70;1.00
7564;DHT22;3823;53.586;10.040;2023-05-16T14:22:56;15.70;1.00
7564;DHT22;3823;53.586;10.040;2023-05-16T14:25:21;15.70;1.00
7564;DHT22;3823;53.586;10.040;2023-05-16T14:27:47;15.70;1.00
7564;DHT22;3823;53.586;10.040;2023-05-16T14:30:15;15.80;1.00
7564;DHT22;3823;53.586;10.040;2023-05-16T14:32:41;15.70;1.00
7564;DHT22;3823;53.586;10.040;2023-05-16T14:35:06;15.80;1.00
7564;DHT22;3823;53.586;10.040;2023-05-16T14:37:33;15.80;1.00
7564;DHT22;3823;53.586;10.040;2023-05-16T14:39:59;15.70;1.00
7564;DHT22;3823;53.586;10.040;2023-05-16T14:42:25;15.90;1.00
7564;DHT22;3823;53.586;10.040;2023-05-16T14:44:51;16.00;1.00
7564;DHT22;3823;53.586;10.040;2023-05-16T14:47:16;15.90;1.00
7564;DHT22;3823;53.586;10.040;2023-05-16T14:49:43;15.80;1.00
7564;DHT22;3823;53.586;10.040;2023-05-16T14:52:08;15.80;1.00
7564;DHT22;3823;53.586;10.040;2023-05-16T14:54:34;15.80;1.00
7564;DHT22;3823;53.586;10.040;2023-05-16T14:57:01;15.60;1.00
7564;DHT22;3823;53.586;10.040;2023-05-16T14:59:28;15.70;1.00
7564;DHT22;3823;53.586;10.040;2023-05-16T15:01:53;15.70;1.00
7564;DHT22;3823;53.586;10.040;2023-05-16T15:04:19;15.70;1.00
7564;DHT22;3823;53.586;10.040;2023-05-16T15:06:44;15.60;1.00
7564;DHT22;3823;53.586;10.040;2023-05-16T15:09:10;15.50;1.00
7564;DHT22;3823;53.586;10.040;2023-05-16T15:11:35;15.30;1.00
7564;DHT22;3823;53.586;10.040;2023-05-16T15:14:01;15.40;1.00
7564;DHT22;3823;53.586;10.040;2023-05-16T15:16:28;15.40;1.00
7564;DHT22;3823;53.586;10.040;2023-05-16T15:18:54;15.30;1.00
7564;DHT22;3823;53.586;10.040;2023-05-16T15:21:20;15.20;1.00
7564;DHT22;3823;53.586;10.040;2023-05-16T15:23:45;15.30;1.00
7564;DHT22;3823;53.586;10.040;2023-05-16T15:26:11;15.20;1.00
7564;DHT22;3823;53.586;10.040;2023-05-16T15:28:38;15.30;1.00
7564;DHT22;3823;53.586;10.040;2023-05-16T15:31:03;15.40;1.00
7564;DHT22;3823;53.586;10.040;2023-05-16T15:33:30;15.50;1.00
7564;DHT22;3823;53.586;10.040;2023-05-16T15:35:55;15.60;1.00
7564;DHT22;3823;53.586;10.040;2023-05-16T15:38:22;15.70;1.00
7564;DHT22;3823;53.586;10.040;2023-05-16T15:40:47;15.60;1.00
7564;DHT22;3823;53.586;10.040;2023-05-16T15:43:13;15.50;1.00
7564;DHT22;3823;53.586;10.040;2023-05-16T15:45:38;15.40;1.00
7564;DHT22;3823;53.586;10.040;2023-05-16T15:48:04;15.30;1.00
7564;DHT22;3823;53.586;10.040;2023-05-16T15:50:30;15.20;1.00
7564;DHT22;3823;53.586;10.040;2023-05-16T15:52:55;15.10;1.00
7564;DHT22;3823;53.586;10.040;2023-05-16T15:55:22;15.00;1.00
7564;DHT22;3823;53.586;10.040;2023-05-16T15:57:48;14.80;1.00
7564;DHT22;3823;53.586;10.040;2023-05-16T16:00:14;14.90;1.00
7564;DHT22;3823;53.586;10.040;2023-05-16T16:02:40;15.00;1.00
7564;DHT22;3823;53.586;10.040;2023-05-16T16:05:07;14.90;1.00
7564;DHT22;3823;53.586;10.040;2023-05-16T16:07:33;14.90;1.00
7564;DHT22;3823;53.586;10.040;2023-05-16T16:09:58;14.80;1.00
7564;DHT22;3823;53.586;10.040;2023-05-16T16:12:24;14.70;1.00
7564;DHT22;3823;53.586;10.040;2023-05-16T16:14:49;14.70;1.00
7564;DHT22;3823;53.586;10.040;2023-05-16T16:17:16;14.60;1.00
7564;DHT22;3823;53.586;10.040;2023-05-16T16:19:42;14.60;1.00
7564;DHT22;3823;53.586;10.040;2023-05-16T16:22:07;14.60;1.00
7564;DHT22;3823;53.586;10.040;2023-05-16T16:24:33;14.70;1.00
7564;DHT22;3823;53.586;10.040;2023-05-16T16:26:58;14.70;1.00
7564;DHT22;3823;53.586;10.040;2023-05-16T16:29:24;14.80;1.00
7564;DHT22;3823;53.586;10.040;2023-05-16T16:31:50;14.80;1.00
7564;DHT22;3823;53.586;10.040;2023-05-16T16:34:17;14.90;1.00
7564;DHT22;3823;53.586;10.040;2023-05-16T16:36:43;14.80;1.00
7564;DHT22;3823;53.586;10.040;2023-05-16T16:39:08;14.70;1.00
7564;DHT22;3823;53.586;10.040;2023-05-16T16:41:34;14.60;1.00
7564;DHT22;3823;53.586;10.040;2023-05-16T16:44:00;14.60;1.00
7564;DHT22;3823;53.586;10.040;2023-05-16T16:46:26;14.60;1.00
7564;DHT22;3823;53.586;10.040;2023-05-16T16:48:51;14.60;1.00
7564;DHT22;3823;53.586;10.040;2023-05-16T16:51:19;14.50;1.00
7564;DHT22;3823;53.586;10.040;2023-05-16T16:53:44;14.40;1.00
7564;DHT22;3823;53.586;10.040;2023-05-16T16:56:10;14.30;1.00
7564;DHT22;3823;53.586;10.040;2023-05-16T16:58:35;14.20;1.00
7564;DHT22;3823;53.586;10.040;2023-05-16T17:01:01;14.10;1.00
7564;DHT22;3823;53.586;10.040;2023-05-16T17:03:28;14.10;1.00
7564;DHT22;3823;53.586;10.040;2023-05-16T17:05:53;14.10;1.00
7564;DHT22;3823;53.586;10.040;2023-05-16T17:08:19;14.00;1.00
7564;DHT22;3823;53.586;10.040;2023-05-16T17:10:45;13.90;1.00
7564;DHT22;3823;53.586;10.040;2023-05-16T17:13:11;13.70;1.00
7564;DHT22;3823;53.586;10.040;2023-05-16T17:15:39;13.70;1.00
7564;DHT22;3823;53.586;10.040;2023-05-16T17:18:05;13.60;1.00
7564;DHT22;3823;53.586;10.040;2023-05-16T17:20:33;13.50;1.00
7564;DHT22;3823;53.586;10.040;2023-05-16T17:23:00;13.40;1.00
7564;DHT22;3823;53.586;10.040;2023-05-16T17:25:26;13.40;1.00
7564;DHT22;3823;53.586;10.040;2023-05-16T17:27:52;13.30;1.00
7564;DHT22;3823;53.586;10.040;2023-05-16T17:30:18;13.10;1.00
7564;DHT22;3823;53.586;10.040;2023-05-16T17:32:43;13.00;1.00
7564;DHT22;3823;53.586;10.040;2023-05-16T17:35:09;12.90;1.00
7564;DHT22;3823;53.586;10.040;2023-05-16T17:37:34;12.90;1.00
7564;DHT22;3823;53.586;10.040;2023-05-16T17:40:00;12.90;1.00
7564;DHT22;3823;53.586;10.040;2023-05-16T17:42:26;12.90;1.00
7564;DHT22;3823;53.586;10.040;2023-05-16T17:44:52;12.90;1.00
7564;DHT22;3823;53.586;10.040;2023-05-16T17:47:18;12.90;1.00
7564;DHT22;3823;53.586;10.040;2023-05-16T17:49:44;12.90;1.00
7564;DHT22;3823;53.586;10.040;2023-05-16T17:52:10;12.90;1.00
7564;DHT22;3823;53.586;10.040;2023-05-16T17:54:36;12.90;1.00
7564;DHT22;3823;53.586;10.040;2023-05-16T17:57:02;12.90;1.00
7564;DHT22;3823;53.586;10.040;2023-05-16T17:59:28;12.90;1.00
7564;DHT22;3823;53.586;10.040;2023-05-16T18:01:55;13.00;1.00
7564;DHT22;3823;53.586;10.040;2023-05-16T18:04:22;13.10;1.00
7564;DHT22;3823;53.586;10.040;2023-05-16T18:06:48;13.10;1.00
7564;DHT22;3823;53.586;10.040;2023-05-16T18:09:17;13.10;1.00
7564;DHT22;3823;53.586;10.040;2023-05-16T18:11:43;13.20;1.00
7564;DHT22;3823;53.586;10.040;2023-05-16T18:14:08;13.10;1.00
7564;DHT22;3823;53.586;10.040;2023-05-16T18:16:34;13.00;1.00
7564;DHT22;3823;53.586;10.040;2023-05-16T18:19:00;13.00;1.00
7564;DHT22;3823;53.586;10.040;2023-05-16T18:21:26;12.90;1.00
7564;DHT22;3823;53.586;10.040;2023-05-16T18:23:52;12.80;1.00
7564;DHT22;3823;53.586;10.040;2023-05-16T18:26:18;12.90;1.00
7564;DHT22;3823;53.586;10.040;2023-05-16T18:28:44;12.70;1.00
7564;DHT22;3823;53.586;10.040;2023-05-16T18:31:10;12.70;1.00
7564;DHT22;3823;53.586;10.040;2023-05-16T18:33:36;12.80;1.00
7564;DHT22;3823;53.586;10.040;2023-05-16T18:36:02;12.90;1.00
7564;DHT22;3823;53.586;10.040;2023-05-16T18:38:28;12.80;1.00
7564;DHT22;3823;53.586;10.040;2023-05-16T18:40:54;12.80;1.00
7564;DHT22;3823;53.586;10.040;2023-05-16T18:43:20;12.80;1.00
7564;DHT22;3823;53.586;10.040;2023-05-16T18:45:45;12.90;1.00
7564;DHT22;3823;53.586;10.040;2023-05-16T18:48:11;12.80;1.00
7564;DHT22;3823;53.586;10.040;2023-05-16T18:50:37;12.80;1.00
7564;DHT22;3823;53.586;10.040;2023-05-16T18:53:02;12.70;1.00
7564;DHT22;3823;53.586;10.040;2023-05-16T18:55:28;12.70;1.00
7564;DHT22;3823;53.586;10.040;2023-05-16T18:57:53;12.70;1.00
7564;DHT22;3823;53.586;10.040;2023-05-16T19:00:19;12.70;1.00
7564;DHT22;3823;53.586;10.040;2023-05-16T19:02:45;12.70;1.00
7564;DHT22;3823;53.586;10.040;2023-05-16T19:05:11;12.70;1.00
7564;DHT22;3823;53.586;10.040;2023-05-16T19:07:39;12.70;1.00
7564;DHT22;3823;53.586;10.040;2023-05-16T19:10:05;12.70;1.00
7564;DHT22;3823;53.586;10.040;2023-05-16T19:12:31;12.60;1.00
7564;DHT22;3823;53.586;10.040;2023-05-16T19:14:57;12.60;1.00
7564;DHT22;3823;53.586;10.040;2023-05-16T19:17:22;12.60;1.00
7564;DHT22;3823;53.586;10.040;2023-05-16T19:19:48;12.60;1.00
7564;DHT22;3823;53.586;10.040;2023-05-16T19:22:13;12.70;1.00
7564;DHT22;3823;53.586;10.040;2023-05-16T19:24:39;12.70;1.00
7564;DHT22;3823;53.586;10.040;2023-05-16T19:27:05;12.70;1.00
7564;DHT22;3823;53.586;10.040;2023-05-16T19:29:30;12.60;1.00
7564;DHT22;3823;53.586;10.040;2023-05-16T19:31:56;12.50;1.00
7564;DHT22;3823;53.586;10.040;2023-05-16T19:34:22;12.60;1.00
7564;DHT22;3823;53.586;10.040;2023-05-16T19:36:51;12.70;1.00
7564;DHT22;3823;53.586;10.040;2023-05-16T19:39:16;12.70;1.00
7564;DHT22;3823;53.586;10.040;2023-05-16T19:41:42;12.60;1.00
7564;DHT22;3823;53.586;10.040;2023-05-16T19:44:08;12.60;1.00
7564;DHT22;3823;53.586;10.040;2023-05-16T19:46:33;12.60;1.00
7564;DHT22;3823;53.586;10.040;2023-05-16T19:48:59;12.60;1.00
7564;DHT22;3823;53.586;10.040;2023-05-16T19:51:24;12.60;18.10
7564;DHT22;3823;53.586;10.040;2023-05-16T19:53:50;12.50;21.30
7564;DHT22;3823;53.586;10.040;2023-05-16T19:56:15;12.40;58.20
7564;DHT22;3823;53.586;10.040;2023-05-16T19:58:41;12.40;48.40
7564;DHT22;3823;53.586;10.040;2023-05-16T20:01:09;12.50;37.30
7564;DHT22;3823;53.586;10.040;2023-05-16T20:03:35;12.30;77.60
7564;DHT22;3823;53.586;10.040;2023-05-16T20:06:01;12.20;99.90